Impacts TAF Board
For situational awareness. Not to be used for flight planning purposes.
IDs:

KTPA - Tampa Intl Arpt, FL, US

Issued at 2119 UTC 24 Apr 2019
Updated at 2146 UTC 24 Apr 2019
Potential Impact None Slight Moderate High
Time2053Z 24/22Z 24/23Z 25/00Z 25/01Z 25/02Z 25/03Z 25/04Z 25/05Z 25/06Z 25/07Z 25/08Z 25/09Z 25/10Z>>
Type OBS PRVL PRVL PRVL PRVL PRVL PRVL PRVL PRVL PRVL PRVL PRVL PRVL PRVL
VIS 10 >6 >6 >6 >6 >6 >6 >6 >6 >6 >6 >6 >6 >6
CIG -- -- -- -- -- 250 250 250 250 250 250 250 250 250
Cover SCT SCT SCT SCT SCT BKN BKN BKN BKN BKN BKN BKN BKN BKN
FltCat VFR VFR VFR VFR VFR VFR VFR VFR VFR VFR VFR VFR VFR VFR
WX -- -- -- -- -- -- -- -- -- -- -- -- -- --
WDir 270 290 290 290 290 VRB VRB VRB VRB VRB VRB VRB VRB VRB
WSpd 7 7 7 7 7 3 3 3 3 3 3 3 3 3
WGst -- -- -- -- -- -- -- -- -- -- -- -- -- --
Raw TAF
KTPA 242119Z 2421/2524 29007KT P6SM FEW060 SCT250
  FM250200 VRB03KT P6SM BKN250
  FM251400 18007KT P6SM SCT030 BKN250
  FM251800 23009KT P6SM SCT045 SCT150 BKN250


Raw METAR
KTPA 242053Z 27007KT 10SM SCT060 SCT250 29/16 A2999 RMK AO2 SLP155 T02890161 56018 $
KTPA 241953Z 26003KT 10SM FEW050 FEW250 29/14 A3000 RMK AO2 SLP159 T02890144 $
KTPA 241853Z 26009KT 10SM FEW050 FEW250 27/15 A3003 RMK AO2 SLP167 T02720150 PNO $

METAR Board
Radar Display
Forecast Discussion
For situational awareness. Not to be used for flight planning purposes.